Time;durP1;ratioP1;P1;durP2;ratioP2;P2;SDS_P1;SDS_P2;PMS_P1;PMS_P2;Temp;Humidity;BMP_temperature;BMP_pressure;BME280_temperature;BME280_humidity;BME280_pressure;Samples;Min_cycle;Max_cycle;Signal;HPM_P1;HPM_P2
2023/04/17 00:01:09;;;;;;;10.98;5.97;;;;;;;11.83;73.44;99038.25;3144589;28;20520;-70
2023/04/17 00:02:40;;;;;;;11.15;5.15;;;;;;;11.80;73.59;99035.84;3138642;28;20078;-70
2023/04/17 00:04:12;;;;;;;14.00;6.53;;;;;;;11.77;73.48;99042.09;3139109;28;20041;-70
2023/04/17 00:05:45;;;;;;;10.82;5.15;;;;;;;11.75;73.31;99035.31;3139489;28;20600;-70
2023/04/17 00:07:21;;;;;;;13.77;7.55;;;;;;;11.77;73.57;99042.09;3146524;28;20060;-70
2023/04/17 00:08:53;;;;;;;14.48;5.97;;;;;;;11.78;73.22;99032.50;3146816;28;20128;-70
2023/04/17 00:10:24;;;;;;;14.38;5.93;;;;;;;11.72;73.52;99022.47;3146882;28;20059;-70
2023/04/17 00:11:55;;;;;;;11.40;5.30;;;;;;;11.78;73.16;99032.50;3143221;28;20053;-69
2023/04/17 00:13:27;;;;;;;15.85;6.05;;;;;;;11.81;73.25;99034.91;3137405;28;20131;-69
2023/04/17 00:14:59;;;;;;;16.83;6.40;;;;;;;11.81;73.21;99035.75;3146332;28;20056;-68
2023/04/17 00:16:32;;;;;;;15.23;5.95;;;;;;;11.83;73.27;99027.81;3142085;28;20445;-68
2023/04/17 00:18:03;;;;;;;;;;;;;;;11.74;73.33;99034.47;3147127;28;20110;-69
2023/04/17 00:19:35;;;;;;;10.73;5.18;;;;;;;11.73;73.39;99035.38;3144332;28;20398;-69
2023/04/17 00:21:06;;;;;;;14.48;6.22;;;;;;;11.73;73.14;99034.56;3146660;28;20048;-68
2023/04/17 00:22:37;;;;;;;13.82;5.32;;;;;;;11.73;73.41;99040.59;3146709;28;20445;-69
2023/04/17 00:24:11;;;;;;;12.27;5.20;;;;;;;11.73;73.23;99035.38;3146707;28;20173;-68
2023/04/17 00:25:43;;;;;;;14.30;5.97;;;;;;;11.73;73.31;99034.56;3146470;28;20071;-68
2023/04/17 00:27:14;;;;;;;13.20;5.15;;;;;;;11.73;73.42;99039.78;3146771;28;20048;-69
2023/04/17 00:28:49;;;;;;;15.35;5.22;;;;;;;11.73;73.53;99039.78;3146568;28;20048;-68
2023/04/17 00:30:19;;;;;;;12.70;5.07;;;;;;;11.71;73.42;99044.22;3144454;28;20052;-69
2023/04/17 00:31:53;;;;;;;11.75;4.53;;;;;;;11.69;73.45;99054.78;3138433;28;20056;-68
2023/04/17 00:33:25;;;;;;;10.20;4.50;;;;;;;11.67;73.67;99051.41;3146324;28;20159;-69
2023/04/17 00:34:56;;;;;;;12.90;5.57;;;;;;;11.66;73.68;99038.50;3140373;28;20049;-68
2023/04/17 00:36:30;;;;;;;16.90;5.80;;;;;;;11.70;73.56;99042.56;3138074;28;20110;-68
2023/04/17 00:38:02;;;;;;;16.40;5.55;;;;;;;11.68;73.36;99040.03;3138715;28;20048;-70
2023/04/17 00:39:34;;;;;;;14.00;5.63;;;;;;;11.73;73.40;99039.78;3133797;28;20057;-69
2023/04/17 00:41:06;;;;;;;16.95;6.43;;;;;;;11.65;73.47;99028.97;3138235;28;20498;-69
2023/04/17 00:42:37;;;;;;;19.00;6.78;;;;;;;11.76;73.32;99052.63;3143686;28;20048;-70
2023/04/17 00:44:09;;;;;;;16.27;6.38;;;;;;;11.76;73.26;99044.78;3141219;28;20071;-69
2023/04/17 00:45:40;;;;;;;17.65;6.05;;;;;;;11.76;73.54;99044.78;3137126;28;20057;-69
2023/04/17 00:47:14;;;;;;;14.57;6.55;;;;;;;11.78;73.21;99048.16;3141197;28;20056;-69
2023/04/17 00:48:47;;;;;;;11.63;5.85;;;;;;;11.78;73.33;99045.56;3141440;28;20048;-69
2023/04/17 00:50:19;;;;;;;16.20;6.10;;;;;;;11.77;73.60;99049.94;3132652;28;20607;-69
2023/04/17 00:51:50;;;;;;;12.52;5.78;;;;;;;11.77;73.33;99054.28;3120305;28;20106;-69
2023/04/17 00:53:22;;;;;;;15.55;5.45;;;;;;;11.76;73.37;99042.19;3140569;28;20052;-69
2023/04/17 00:54:54;;;;;;;18.15;7.25;;;;;;;11.75;73.38;99050.97;3141052;28;20059;-69
2023/04/17 00:56:28;;;;;;;15.13;5.45;;;;;;;11.26;73.76;98976.56;3135316;28;20052;-69
2023/04/17 00:58:01;;;;;;;13.35;5.47;;;;;;;11.69;73.73;99038.28;3140728;28;20056;-69
2023/04/17 00:59:32;;;;;;;12.07;5.90;;;;;;;11.70;73.75;99043.41;3135403;28;20537;-69
2023/04/17 01:01:05;;;;;;;15.80;5.85;;;;;;;11.71;74.36;99049.44;3137072;28;20391;-69
2023/04/17 01:02:38;;;;;;;15.60;6.03;;;;;;;11.43;74.27;99000.78;3140816;28;20592;-69
2023/04/17 01:04:10;;;;;;;;;;;;;;;11.61;74.06;99047.41;3141018;28;20463;-69
2023/04/17 01:05:42;;;;;;;14.23;5.60;;;;;;;11.61;74.48;99043.97;3135562;28;19925;-68
2023/04/17 01:07:14;;;;;;;15.13;6.43;;;;;;;11.61;74.36;99046.56;3141185;28;20201;-69
2023/04/17 01:08:46;;;;;;;12.60;6.15;;;;;;;11.61;74.70;99046.56;3140794;28;20453;-69
2023/04/17 01:10:18;;;;;;;12.85;5.72;;;;;;;11.57;74.71;99048.53;3140556;28;20418;-68
2023/04/17 01:11:50;;;;;;;11.68;5.75;;;;;;;11.51;74.89;99030.66;3133188;28;20509;-68
2023/04/17 01:13:21;;;;;;;11.57;5.40;;;;;;;11.61;74.72;99042.19;3140712;28;20134;-69
2023/04/17 01:14:54;;;;;;;12.20;6.35;;;;;;;11.60;74.68;99035.31;3136475;28;20122;-69
2023/04/17 01:16:26;;;;;;;18.83;5.82;;;;;;;11.65;74.76;99047.22;3140971;28;20116;-69
2023/04/17 01:18:00;;;;;;;17.77;5.80;;;;;;;11.68;74.94;99045.25;3139849;28;20052;-69
2023/04/17 01:19:31;;;;;;;12.60;5.97;;;;;;;11.70;74.80;99038.19;3139640;28;20059;-69
2023/04/17 01:21:03;;;;;;;10.95;5.60;;;;;;;11.72;74.56;99046.75;3141051;28;20105;-69
2023/04/17 01:22:35;;;;;;;10.40;5.30;;;;;;;11.72;74.80;99041.53;3140081;28;20143;-68
2023/04/17 01:24:09;;;;;;;14.10;5.65;;;;;;;11.74;74.89;99046.66;3140705;28;20056;-69
2023/04/17 01:25:41;;;;;;;12.20;5.97;;;;;;;11.44;74.54;98998.06;3140580;28;20110;-69
2023/04/17 01:27:14;;;;;;;11.68;5.88;;;;;;;11.73;74.71;99050.19;3140490;28;20371;-68
2023/04/17 01:28:51;;;;;;;11.93;5.38;;;;;;;11.72;74.83;99046.75;3139781;28;20076;-69
2023/04/17 01:30:23;;;;;;;9.27;5.05;;;;;;;11.73;75.06;99047.59;3135322;28;20078;-69
2023/04/17 01:31:55;;;;;;;13.70;5.63;;;;;;;11.73;75.01;99055.41;3136568;28;20087;-69
2023/04/17 01:33:27;;;;;;;10.48;5.43;;;;;;;11.66;75.17;99033.28;3133888;28;20140;-69
2023/04/17 01:34:58;;;;;;;13.20;5.40;;;;;;;11.74;75.21;99046.66;3128933;28;20789;-69
2023/04/17 01:36:30;;;;;;;11.15;5.00;;;;;;;11.75;75.07;99043.13;3134344;28;20053;-68
2023/04/17 01:38:02;;;;;;;12.00;5.95;;;;;;;11.75;75.29;99043.97;3140116;28;20055;-69
2023/04/17 01:39:36;;;;;;;13.05;5.28;;;;;;;11.76;75.34;99050.84;3133209;28;20131;-68
2023/04/17 01:41:08;;;;;;;10.77;6.40;;;;;;;11.70;75.40;99032.13;3140106;28;20071;-69
2023/04/17 01:42:40;;;;;;;13.68;5.85;;;;;;;11.76;75.17;99039.56;3140690;28;20048;-68
2023/04/17 01:44:11;;;;;;;12.07;5.82;;;;;;;11.71;75.40;99031.19;3136044;28;20516;-68
2023/04/17 01:45:43;;;;;;;10.88;5.57;;;;;;;11.77;75.20;99043.84;3140141;28;20059;-69
2023/04/17 01:47:15;;;;;;;10.10;5.22;;;;;;;11.78;75.06;99042.94;3139290;28;20072;-69
2023/04/17 01:48:47;;;;;;;11.20;4.97;;;;;;;11.77;75.14;99030.81;3128724;28;20083;-69
2023/04/17 01:50:19;;;;;;;16.17;5.80;;;;;;;11.79;75.05;99032.41;3131678;28;20074;-69
2023/04/17 01:51:50;;;;;;;12.07;5.78;;;;;;;11.81;75.38;99030.53;3140270;28;20053;-69
2023/04/17 01:53:22;;;;;;;13.13;6.05;;;;;;;11.83;74.92;99025.22;3140395;28;20126;-69
2023/04/17 01:54:54;;;;;;;14.90;5.72;;;;;;;11.83;75.15;99028.69;3140506;28;20056;-69
2023/04/17 01:56:27;;;;;;;12.30;5.50;;;;;;;11.76;74.84;99018.72;3134287;28;20076;-70
2023/04/17 01:57:59;;;;;;;11.88;5.82;;;;;;;11.75;75.02;99023.09;3137062;28;20489;-70
2023/04/17 01:59:30;;;;;;;12.77;5.32;;;;;;;11.76;75.15;99026.53;3137152;28;20595;-70
2023/04/17 02:01:01;;;;;;;12.32;5.55;;;;;;;11.76;74.99;99023.94;3140230;28;20053;-69
2023/04/17 02:02:33;;;;;;;14.32;5.95;;;;;;;11.75;75.19;99020.50;3140095;28;20677;-69
2023/04/17 02:04:05;;;;;;;11.18;5.82;;;;;;;11.82;75.04;99028.75;3139993;28;20059;-70
2023/04/17 02:05:37;;;;;;;11.65;6.07;;;;;;;11.80;74.80;99035.84;3134795;28;20063;-70
2023/04/17 02:07:09;;;;;;;10.77;5.55;;;;;;;11.78;75.05;99035.13;3140451;28;20118;-70
2023/04/17 02:08:40;;;;;;;11.02;5.82;;;;;;;11.73;74.85;99035.38;3139977;28;20098;-70
2023/04/17 02:10:14;;;;;;;10.77;5.20;;;;;;;11.66;74.36;99034.09;3134797;28;20048;-69
2023/04/17 02:11:46;;;;;;;15.32;5.25;;;;;;;11.59;74.40;99027.56;3130528;28;20048;-68
2023/04/17 02:13:18;;;;;;;12.02;5.45;;;;;;;11.52;74.26;99032.34;3135750;28;20122;-68
2023/04/17 02:14:50;;;;;;;13.77;5.25;;;;;;;11.48;74.77;99017.00;3139160;28;20501;-69
2023/04/17 02:16:21;;;;;;;13.10;5.82;;;;;;;11.49;74.61;99013.44;3140278;28;20529;-69
2023/04/17 02:17:53;;;;;;;15.20;6.32;;;;;;;11.49;74.49;99018.66;3140089;28;20052;-68
2023/04/17 02:19:25;;;;;;;15.85;6.35;;;;;;;11.46;74.77;99022.28;3138892;28;20135;-69
2023/04/17 02:20:57;;;;;;;11.73;6.60;;;;;;;11.43;74.84;99021.63;3139716;28;20048;-68
2023/04/17 02:22:28;;;;;;;15.65;6.53;;;;;;;11.36;75.16;99016.81;3140057;28;20135;-69
2023/04/17 02:24:00;;;;;;;12.05;6.28;;;;;;;11.35;75.45;99022.94;3139767;28;20056;-68
2023/04/17 02:25:33;;;;;;;17.65;5.55;;;;;;;11.32;75.34;99015.28;3139781;28;20309;-68
2023/04/17 02:27:05;;;;;;;16.30;6.25;;;;;;;11.35;75.54;99022.09;3134259;28;20045;-68
2023/04/17 02:28:37;;;;;;;16.23;6.50;;;;;;;11.37;75.61;99015.03;3135668;28;20052;-68
2023/04/17 02:30:09;;;;;;;19.13;6.93;;;;;;;11.35;75.88;99015.09;3139383;28;20155;-68
2023/04/17 02:31:41;;;;;;;19.15;6.97;;;;;;;11.30;76.43;99017.19;3133533;28;20052;-68
2023/04/17 02:33:13;;;;;;;12.43;6.70;;;;;;;11.32;76.56;99017.06;3140148;28;20110;-68
2023/04/17 02:34:44;;;;;;;12.00;6.30;;;;;;;11.30;76.25;99019.78;3136489;28;20082;-69
2023/04/17 02:36:16;;;;;;;12.73;5.93;;;;;;;11.28;76.19;99018.19;3131803;28;20059;-69
2023/04/17 02:37:47;;;;;;;12.73;6.35;;;;;;;11.30;76.18;99026.78;3139585;28;20098;-69
2023/04/17 02:39:35;;;;;;;13.68;5.95;;;;;;;11.29;76.21;99019.84;3132277;28;20396;-69
2023/04/17 02:41:08;;;;;;;11.40;5.05;;;;;;;11.29;75.62;99023.31;3144810;28;20103;-69
2023/04/17 02:42:40;;;;;;;10.13;4.35;;;;;;;11.22;75.51;99013.34;3141038;28;20094;-68
2023/04/17 02:44:12;;;;;;;14.45;5.22;;;;;;;11.27;75.17;99026.94;3141579;28;21298;-69
2023/04/17 02:45:43;;;;;;;7.38;4.70;;;;;;;11.21;74.69;99016.88;3135143;28;20048;-69
2023/04/17 02:47:15;;;;;;;9.57;4.32;;;;;;;11.24;74.77;99024.50;3141135;28;20130;-69
2023/04/17 02:48:47;;;;;;;10.93;4.53;;;;;;;11.22;74.72;99029.00;3133770;28;20045;-69
2023/04/17 02:50:19;;;;;;;13.10;5.35;;;;;;;11.16;74.18;99017.16;3135929;28;20161;-70
2023/04/17 02:51:50;;;;;;;10.98;4.70;;;;;;;11.21;74.44;99030.75;3141354;28;20107;-69
2023/04/17 02:53:21;;;;;;;8.85;4.57;;;;;;;11.19;74.22;99030.00;3132968;28;20053;-69
2023/04/17 02:54:53;;;;;;;9.50;5.57;;;;;;;11.17;73.86;99034.47;3143949;28;20125;-69
2023/04/17 02:56:26;;;;;;;10.70;4.78;;;;;;;11.15;74.12;99036.31;3139065;28;21077;-68
2023/04/17 02:57:57;;;;;;;14.95;5.78;;;;;;;11.08;74.13;99030.63;3142991;28;20052;-69
2023/04/17 02:59:29;;;;;;;12.65;5.53;;;;;;;11.10;74.61;99040.97;3144066;28;20044;-69
2023/04/17 03:01:01;;;;;;;14.35;5.82;;;;;;;11.07;74.66;99034.19;3145001;28;20135;-69
2023/04/17 03:02:33;;;;;;;12.82;5.68;;;;;;;11.04;74.34;99031.75;3137750;28;20045;-68
2023/04/17 03:04:05;;;;;;;16.73;5.80;;;;;;;11.07;74.65;99036.78;3139751;28;20045;-69
2023/04/17 03:05:37;;;;;;;14.38;5.80;;;;;;;11.03;74.73;99029.22;3140183;28;20071;-68
2023/04/17 03:07:09;;;;;;;10.30;5.20;;;;;;;11.06;74.79;99037.72;3144562;28;20049;-69
2023/04/17 03:08:42;;;;;;;12.77;5.93;;;;;;;11.07;74.95;99033.34;3144641;28;20087;-69
2023/04/17 03:10:13;;;;;;;10.60;4.97;;;;;;;11.07;74.60;99038.56;3145048;28;20045;-68
2023/04/17 03:11:46;;;;;;;9.27;4.55;;;;;;;11.08;74.46;99038.44;3140037;28;20048;-68
2023/04/17 03:13:18;;;;;;;;;;;;;;;10.99;74.75;99027.75;3145339;28;20051;-68
2023/04/17 03:14:50;;;;;;;11.98;4.55;;;;;;;10.91;74.87;99018.63;3144594;28;19939;-69
2023/04/17 03:16:22;;;;;;;13.13;4.57;;;;;;;10.94;74.45;99035.81;3144433;28;20537;-69
2023/04/17 03:17:53;;;;;;;10.35;4.57;;;;;;;10.93;74.68;99036.75;3144161;28;20052;-68
2023/04/17 03:19:25;;;;;;;10.68;4.47;;;;;;;10.89;74.44;99030.06;3144146;28;20091;-69
2023/04/17 03:20:57;;;;;;;8.82;4.07;;;;;;;10.86;74.36;99030.25;3144546;28;20052;-69
2023/04/17 03:22:28;;;;;;;7.20;3.85;;;;;;;10.87;74.16;99035.34;3141984;28;20048;-69
2023/04/17 03:24:00;;;;;;;9.25;3.95;;;;;;;10.87;73.91;99032.75;3143774;28;20063;-68
2023/04/17 03:25:32;;;;;;;8.25;3.25;;;;;;;10.89;73.28;99032.66;3142793;28;20056;-68
2023/04/17 03:27:05;;;;;;;7.65;3.00;;;;;;;10.86;72.55;99023.25;3140972;28;20781;-68
2023/04/17 03:28:37;;;;;;;8.70;3.88;;;;;;;10.85;72.30;99010.31;3144541;28;20064;-68
2023/04/17 03:30:08;;;;;;;6.05;2.92;;;;;;;10.85;72.16;99018.13;3144025;28;20056;-68
2023/04/17 03:31:40;;;;;;;9.93;3.58;;;;;;;10.85;71.55;99020.72;3138446;28;20147;-67
2023/04/17 03:33:12;;;;;;;9.68;3.80;;;;;;;10.84;71.43;99022.50;3144265;28;20393;-68
2023/04/17 03:34:44;;;;;;;13.48;4.80;;;;;;;10.83;71.15;99018.25;3140451;28;20079;-68
2023/04/17 03:36:16;;;;;;;11.63;3.97;;;;;;;10.79;71.23;99016.72;3136088;28;20048;-69
2023/04/17 03:37:48;;;;;;;12.02;4.70;;;;;;;10.80;71.14;99022.78;3144193;28;20127;-68
2023/04/17 03:39:20;;;;;;;9.95;4.68;;;;;;;10.79;71.12;99026.31;3135829;28;20518;-69
2023/04/17 03:40:52;;;;;;;11.93;5.07;;;;;;;10.74;70.82;99020.53;3138357;28;20486;-69
2023/04/17 03:42:25;;;;;;;12.60;5.07;;;;;;;10.75;70.85;99027.44;3135804;28;20727;-68
2023/04/17 03:43:57;;;;;;;10.65;4.85;;;;;;;10.72;70.90;99022.41;3146920;28;20472;-69
2023/04/17 03:45:29;;;;;;;15.80;5.75;;;;;;;10.70;71.41;99023.31;3147548;28;20060;-69
2023/04/17 03:47:00;;;;;;;15.18;5.13;;;;;;;10.72;71.46;99025.00;3147135;28;20551;-69
2023/04/17 03:48:31;;;;;;;17.33;5.53;;;;;;;10.69;71.25;99024.25;3139229;28;20057;-69
2023/04/17 03:50:04;;;;;;;14.00;5.45;;;;;;;10.73;71.47;99024.91;3138768;28;20048;-69
2023/04/17 03:51:35;;;;;;;12.82;5.60;;;;;;;10.62;71.52;99009.91;3144668;28;20057;-69
2023/04/17 03:53:06;;;;;;;11.05;5.13;;;;;;;10.63;71.31;99006.38;3146938;28;20041;-69
2023/04/17 03:54:38;;;;;;;14.50;5.43;;;;;;;10.75;71.30;99025.66;3146824;28;20125;-69
2023/04/17 03:56:09;;;;;;;12.32;5.30;;;;;;;10.75;71.14;99030.03;3138779;28;20044;-69
2023/04/17 03:57:42;;;;;;;10.00;5.13;;;;;;;10.75;71.04;99030.88;3141422;28;20052;-69
2023/04/17 03:59:14;;;;;;;10.77;5.55;;;;;;;10.73;71.39;99034.47;3140416;28;20049;-69
2023/04/17 04:00:47;;;;;;;11.55;5.30;;;;;;;10.72;70.95;99035.41;3140057;28;20075;-69
2023/04/17 04:02:19;;;;;;;13.35;5.10;;;;;;;10.68;71.32;99038.19;3146483;28;20499;-69
2023/04/17 04:03:49;;;;;;;9.43;4.70;;;;;;;10.70;71.14;99044.13;3146703;28;20052;-69
2023/04/17 04:05:21;;;;;;;11.82;5.38;;;;;;;10.72;71.16;99040.63;3140924;28;20049;-69
2023/04/17 04:06:53;;;;;;;12.77;4.53;;;;;;;10.73;71.07;99037.09;3146764;28;20433;-70
2023/04/17 04:08:25;;;;;;;13.05;4.63;;;;;;;10.71;71.00;99034.59;3146629;28;20056;-69
2023/04/17 04:09:56;;;;;;;11.35;4.60;;;;;;;10.75;70.65;99045.66;3142337;28;20079;-69
2023/04/17 04:11:27;;;;;;;9.63;4.32;;;;;;;10.76;70.79;99042.94;3146825;28;20052;-69
2023/04/17 04:13:01;;;;;;;9.02;4.68;;;;;;;10.76;70.45;99049.94;3121868;28;20518;-68
2023/04/17 04:14:32;;;;;;;11.60;4.00;;;;;;;10.67;70.12;99039.09;3145852;28;20079;-68
2023/04/17 04:16:05;;;;;;;8.73;3.92;;;;;;;10.75;70.55;99049.09;3142285;28;20129;-68
2023/04/17 04:17:37;;;;;;;8.30;4.00;;;;;;;10.72;70.32;99046.66;3144738;28;20391;-68
2023/04/17 04:19:08;;;;;;;10.73;4.13;;;;;;;10.77;70.39;99054.22;3147024;28;20049;-67
2023/04/17 04:20:40;;;;;;;6.88;4.15;;;;;;;10.77;70.50;99049.00;3143925;28;20643;-70
2023/04/17 04:22:12;;;;;;;9.05;4.15;;;;;;;10.66;70.64;99039.22;3142820;28;20048;-70
2023/04/17 04:23:44;;;;;;;14.43;5.22;;;;;;;10.76;70.63;99055.13;3146411;28;20048;-70
2023/04/17 04:25:16;;;;;;;13.15;4.78;;;;;;;10.76;70.52;99058.56;3142188;28;20049;-70
2023/04/17 04:26:48;;;;;;;9.65;4.78;;;;;;;10.75;70.56;99056.06;3146717;28;20182;-69
2023/04/17 04:28:22;;;;;;;12.52;4.85;;;;;;;10.78;70.32;99061.94;3146119;28;20113;-70
2023/04/17 04:29:58;;;;;;;11.57;4.50;;;;;;;10.80;70.65;99067.91;3146635;28;20599;-69
2023/04/17 04:31:29;;;;;;;10.05;4.28;;;;;;;10.82;70.25;99067.81;3140197;28;20110;-69
2023/04/17 04:33:04;;;;;;;15.07;4.50;;;;;;;10.82;70.44;99066.03;3146124;28;20048;-69
2023/04/17 04:34:36;;;;;;;11.63;5.03;;;;;;;10.83;70.60;99075.53;3143663;28;20047;-69
2023/04/17 04:36:08;;;;;;;12.45;4.95;;;;;;;10.85;70.43;99071.06;3137008;28;20063;-68
2023/04/17 04:37:41;;;;;;;17.40;6.38;;;;;;;10.87;70.69;99070.97;3137408;28;20536;-69
2023/04/17 04:39:16;;;;;;;14.73;5.47;;;;;;;10.88;70.69;99072.66;3137615;28;20049;-69
2023/04/17 04:40:50;;;;;;;17.23;5.95;;;;;;;10.90;70.71;99074.25;3144745;28;20040;-69
2023/04/17 04:42:22;;;;;;;16.35;4.80;;;;;;;10.91;70.74;99080.28;3146445;28;20045;-69
2023/04/17 04:43:54;;;;;;;18.83;4.93;;;;;;;10.92;70.61;99075.00;3146538;28;20510;-69
2023/04/17 04:45:26;;;;;;;11.68;5.10;;;;;;;10.93;71.03;99075.84;3121742;28;20053;-69
2023/04/17 04:46:57;;;;;;;9.52;4.85;;;;;;;10.93;71.10;99081.88;3144874;28;20102;-69
2023/04/17 04:48:29;;;;;;;12.15;5.03;;;;;;;10.91;71.15;99077.69;3135763;28;20189;-69
2023/04/17 04:50:00;;;;;;;13.90;6.53;;;;;;;11.01;71.15;99088.44;3137985;28;20041;-69
2023/04/17 04:51:32;;;;;;;14.13;5.80;;;;;;;11.04;70.78;99093.47;3133407;28;20082;-69
2023/04/17 04:53:04;;;;;;;11.63;5.17;;;;;;;11.06;70.88;99082.03;3142108;28;20513;-69
2023/04/17 04:54:36;;;;;;;13.25;5.47;;;;;;;11.09;70.89;99086.19;3133434;28;20889;-69
2023/04/17 04:56:07;;;;;;;12.40;5.55;;;;;;;11.13;70.63;99085.09;3137890;28;20051;-69
2023/04/17 04:57:39;;;;;;;16.33;5.90;;;;;;;11.12;70.77;99080.78;3140274;28;20921;-69
2023/04/17 04:59:12;;;;;;;15.98;6.35;;;;;;;11.18;70.75;99087.41;3146528;28;20045;-69
2023/04/17 05:00:44;;;;;;;18.40;6.35;;;;;;;11.04;70.72;99060.41;3146391;28;20040;-69
2023/04/17 05:02:16;;;;;;;15.57;5.85;;;;;;;11.19;70.90;99089.94;3145506;28;20048;-69
2023/04/17 05:03:48;;;;;;;13.25;5.93;;;;;;;11.15;71.20;99078.00;3146282;28;20044;-70
2023/04/17 05:05:20;;;;;;;16.25;7.40;;;;;;;11.24;71.31;99090.53;3140253;28;20434;-70
2023/04/17 05:06:51;;;;;;;15.20;6.45;;;;;;;11.22;70.85;99078.50;3146017;28;20052;-69
2023/04/17 05:08:22;;;;;;;17.38;7.00;;;;;;;11.28;71.25;99092.00;3141389;28;20052;-69
2023/04/17 05:09:54;;;;;;;15.50;6.75;;;;;;;11.29;71.41;99091.06;3146085;28;20712;-69
2023/04/17 05:11:26;;;;;;;27.27;7.97;;;;;;;11.34;71.28;99088.19;3145849;28;20048;-69
2023/04/17 05:12:57;;;;;;;15.18;8.00;;;;;;;11.37;71.75;99091.47;3146614;28;20048;-68
2023/04/17 05:14:30;;;;;;;15.15;6.97;;;;;;;11.39;71.87;99089.59;3145752;28;20049;-68
2023/04/17 05:16:02;;;;;;;19.08;8.48;;;;;;;11.37;71.52;99082.81;3145514;28;20067;-68
2023/04/17 05:17:34;;;;;;;17.80;7.95;;;;;;;11.45;72.02;99098.84;3144163;28;20441;-69
2023/04/17 05:19:05;;;;;;;18.70;8.80;;;;;;;11.47;72.27;99104.78;3146259;28;20526;-69
2023/04/17 05:20:37;;;;;;;17.63;8.20;;;;;;;11.48;71.99;99109.06;3144150;28;20056;-69
2023/04/17 05:22:09;;;;;;;20.77;9.65;;;;;;;11.51;72.61;99102.84;3145550;28;20103;-69
2023/04/17 05:23:41;;;;;;;16.98;9.65;;;;;;;11.55;72.41;99101.72;3141588;28;20057;-69
2023/04/17 05:25:13;;;;;;;23.58;10.98;;;;;;;11.56;72.94;99099.00;3146072;28;20445;-69
2023/04/17 05:26:44;;;;;;;21.25;8.75;;;;;;;11.56;73.09;99091.19;3146047;28;20052;-68
2023/04/17 05:28:16;;;;;;;20.23;9.85;;;;;;;11.59;73.18;99090.16;3145708;28;20044;-67
2023/04/17 05:29:50;;;;;;;19.63;9.43;;;;;;;11.68;72.91;99097.41;3144849;28;20053;-68
2023/04/17 05:31:21;;;;;;;;;;;;;;;11.66;72.92;99098.47;3144425;28;20051;-69
2023/04/17 05:32:53;;;;;;;21.95;10.68;;;;;;;11.65;73.19;99084.56;3140912;28;20015;-72
2023/04/17 05:34:25;;;;;;;23.15;10.82;;;;;;;11.74;73.24;99086.63;3139447;28;20056;-70
2023/04/17 05:35:56;;;;;;;21.00;10.70;;;;;;;11.80;73.38;99082.78;3139516;28;20086;-70
2023/04/17 05:37:28;;;;;;;25.95;11.80;;;;;;;11.87;73.52;99078.91;3140073;28;20145;-68
2023/04/17 05:39:00;;;;;;;26.27;11.32;;;;;;;11.92;73.64;99074.25;3139442;28;20127;-67
2023/04/17 05:40:32;;;;;;;24.30;12.70;;;;;;;11.96;73.78;99078.34;3142182;28;20037;-67
2023/04/17 05:42:04;;;;;;;25.83;13.02;;;;;;;11.96;73.66;99070.50;3138516;28;20051;-71
2023/04/17 05:43:36;;;;;;;70.60;37.17;;;;;;;11.81;74.02;99040.97;3145470;28;20124;-78
2023/04/17 05:45:13;;;;;;;32.47;16.83;;;;;;;12.12;74.16;99073.00;3145660;28;20049;-69
2023/04/17 05:46:44;;;;;;;83.10;44.85;;;;;;;12.17;74.25;99075.31;3145701;28;20067;-73
2023/04/17 05:48:16;;;;;;;85.88;43.70;;;;;;;12.23;74.04;99077.53;3145512;28;20067;-74
2023/04/17 05:49:50;;;;;;;39.50;18.60;;;;;;;12.26;74.21;99069.50;3141276;28;20073;-68
2023/04/17 05:51:22;;;;;;;36.03;14.95;;;;;;;12.36;74.05;99075.81;3139839;28;20105;-67
2023/04/17 05:52:54;;;;;;;31.77;13.65;;;;;;;12.44;74.34;99076.16;3141172;28;20056;-67
2023/04/17 05:54:26;;;;;;;36.03;12.30;;;;;;;12.31;73.85;99050.97;3144703;28;20048;-67
2023/04/17 05:55:58;;;;;;;92.25;50.50;;;;;;;12.56;73.76;99084.16;3141125;28;20055;-70
2023/04/17 05:57:30;;;;;;;69.78;33.38;;;;;;;12.61;73.80;99089.91;3142513;28;20101;-64
2023/04/17 05:59:02;;;;;;;29.40;15.20;;;;;;;12.63;73.29;99096.72;3145442;28;20088;-64
2023/04/17 06:00:38;;;;;;;109.47;54.38;;;;;;;12.62;72.93;99089.81;3145104;28;20044;-66
2023/04/17 06:02:10;;;;;;;33.35;14.40;;;;;;;12.74;73.20;99107.28;3138600;28;20433;-69
2023/04/17 06:03:42;;;;;;;19.25;10.10;;;;;;;12.80;72.51;99111.28;3124877;28;20398;-69
2023/04/17 06:05:15;;;;;;;19.27;9.15;;;;;;;12.89;72.31;99109.84;3130878;28;20055;-66
2023/04/17 06:06:47;;;;;;;24.23;9.68;;;;;;;12.93;71.76;99100.88;3124818;28;20536;-65
2023/04/17 06:08:19;;;;;;;22.55;10.48;;;;;;;12.99;71.60;99103.09;3128191;28;20064;-67
2023/04/17 06:09:51;;;;;;;24.45;10.13;;;;;;;13.05;71.51;99092.22;3129239;28;20084;-67
2023/04/17 06:11:23;;;;;;;20.50;9.40;;;;;;;13.11;70.96;99091.81;3127963;28;20056;-66
2023/04/17 06:12:55;;;;;;;21.08;9.93;;;;;;;13.17;70.92;99093.19;3128415;28;20057;-69
2023/04/17 06:14:26;;;;;;;21.98;10.13;;;;;;;13.22;70.60;99101.53;3125331;28;20524;-66
2023/04/17 06:16:00;;;;;;;20.70;9.57;;;;;;;13.28;70.42;99100.31;3128955;28;20510;-67
2023/04/17 06:17:32;;;;;;;;;;;;;;;13.26;70.43;99112.69;3126665;28;20449;-65
2023/04/17 06:19:04;;;;;;;23.00;10.43;;;;;;;13.13;70.40;99083.84;3131928;28;19977;-68
2023/04/17 06:20:36;;;;;;;20.60;10.57;;;;;;;13.34;70.05;99107.75;3128203;28;20118;-66
2023/04/17 06:22:08;;;;;;;20.27;10.77;;;;;;;13.40;70.08;99110.81;3140450;28;20076;-69
2023/04/17 06:23:40;;;;;;;22.90;12.18;;;;;;;13.41;69.96;99116.88;3141902;28;20117;-71
2023/04/17 06:25:12;;;;;;;21.52;9.43;;;;;;;13.49;69.61;99113.72;3139120;28;20533;-66
2023/04/17 06:26:44;;;;;;;19.75;10.05;;;;;;;13.54;69.82;99125.53;3145241;28;20048;-67
2023/04/17 06:28:16;;;;;;;25.25;11.32;;;;;;;13.59;69.49;99120.00;3145120;28;20128;-69
2023/04/17 06:29:48;;;;;;;23.55;11.20;;;;;;;13.63;69.38;99126.69;3137703;28;20102;-68
2023/04/17 06:31:21;;;;;;;24.15;10.23;;;;;;;13.69;69.24;99133.28;3136024;28;20680;-67
2023/04/17 06:32:53;;;;;;;23.10;9.88;;;;;;;13.73;68.88;99133.00;3145219;28;20048;-70
2023/04/17 06:34:25;;;;;;;22.17;9.32;;;;;;;13.74;68.44;99125.97;3144107;28;20053;-67
2023/04/17 06:35:57;;;;;;;19.23;9.52;;;;;;;13.78;68.44;99130.03;3134115;28;20132;-68
2023/04/17 06:37:29;;;;;;;23.17;10.45;;;;;;;13.81;68.20;99137.69;3137551;28;20870;-68
2023/04/17 06:39:01;;;;;;;23.65;9.73;;;;;;;13.82;68.21;99145.44;3135453;28;20053;-68
2023/04/17 06:40:33;;;;;;;23.08;10.45;;;;;;;13.82;68.06;99139.38;3142650;28;20433;-69
2023/04/17 06:42:06;;;;;;;17.38;9.15;;;;;;;13.92;67.82;99147.41;3134757;28;20064;-68
2023/04/17 06:43:38;;;;;;;14.35;8.60;;;;;;;13.93;67.63;99149.06;3126052;28;20061;-68
2023/04/17 06:45:11;;;;;;;18.50;8.77;;;;;;;13.99;67.53;99154.75;3123057;28;20052;-67
2023/04/17 06:46:45;;;;;;;19.35;8.15;;;;;;;13.64;67.46;99091.75;3123298;28;20046;-67
2023/04/17 06:48:17;;;;;;;15.73;8.32;;;;;;;14.00;66.93;99148.56;3125457;28;20167;-67
2023/04/17 06:49:49;;;;;;;18.95;8.23;;;;;;;14.04;66.91;99147.38;3125628;28;20071;-68
2023/04/17 06:51:21;;;;;;;16.75;7.43;;;;;;;14.03;66.70;99134.41;3131884;28;20064;-68
2023/04/17 06:52:53;;;;;;;19.77;8.70;;;;;;;14.07;66.62;99147.19;3126786;28;20504;-67
2023/04/17 06:54:25;;;;;;;14.95;7.45;;;;;;;14.06;66.25;99139.44;3125273;28;20060;-67
2023/04/17 06:55:57;;;;;;;20.08;7.60;;;;;;;14.09;66.27;99144.47;3123937;28;20057;-67
2023/04/17 06:57:28;;;;;;;17.23;7.50;;;;;;;14.15;66.08;99149.25;3122168;28;20064;-67
2023/04/17 06:59:00;;;;;;;16.60;7.70;;;;;;;14.17;65.99;99147.38;3125461;28;20053;-66
2023/04/17 07:00:32;;;;;;;13.98;7.22;;;;;;;14.10;65.43;99149.56;3123706;28;20084;-67
2023/04/17 07:02:06;;;;;;;15.05;6.57;;;;;;;14.03;65.47;99142.28;3132388;28;20476;-68
2023/04/17 07:03:38;;;;;;;;;;;;;;;14.00;65.62;99152.97;3135657;28;20152;-66
2023/04/17 07:05:11;;;;;;;15.10;6.10;;;;;;;13.95;65.44;99148.03;3130166;28;19928;-66
2023/04/17 07:06:43;;;;;;;11.90;6.78;;;;;;;14.00;65.32;99145.09;3128423;28;20052;-64
2023/04/17 07:08:17;;;;;;;12.88;6.68;;;;;;;14.00;65.17;99150.34;3128777;28;20049;-63
2023/04/17 07:09:49;;;;;;;14.13;6.25;;;;;;;14.02;65.34;99158.91;3132449;28;20890;-67